Time;durP1;ratioP1;P1;durP2;ratioP2;P2;SDS_P1;SDS_P2;PMS_P1;PMS_P2;Temp;Humidity;BMP_temperature;BMP_pressure;BME280_temperature;BME280_humidity;BME280_pressure;Samples;Min_cycle;Max_cycle;Signal;HPM_P1;HPM_P2
2023/04/16 00:00:29;;;;;;;;;;;;;;;;;;4351540;33;19949;-85
2023/04/16 00:02:54;;;;;;;;;;;;;;;;;;4350090;33;20329;-86
2023/04/16 00:05:19;;;;;;;;;;;;;;;;;;4347909;33;20031;-85
2023/04/16 00:07:45;;;;;;;;;;;;;;;;;;4354676;33;19935;-83
2023/04/16 00:10:10;;;;;;;;;;;;;;;;;;4359756;32;19948;-83
2023/04/16 00:12:35;;;;;;;;;;;;;;;;;;4347112;33;19943;-85
2023/04/16 00:15:00;;;;;;;;;;;;;;;;;;4335586;33;19982;-84
2023/04/16 00:17:25;;;;;;;;;;;;;;;;;;4333786;33;19935;-85
2023/04/16 00:19:50;;;;;;;;;;;;;;;;;;4349922;33;19946;-83
2023/04/16 00:22:15;;;;;;;;;;;;;;;;;;4345797;33;19950;-82
2023/04/16 00:24:41;;;;;;;;;;;;;;;;;;4335247;33;20264;-81
2023/04/16 00:27:06;;;;;;;;;;;;;;;;;;4345031;33;19973;-78
2023/04/16 00:29:32;;;;;;;;;;;;;;;;;;4333946;33;20100;-79
2023/04/16 00:31:57;;;;;;;;;;;;;;;;;;4333284;33;19943;-80
2023/04/16 00:34:22;;;;;;;;;;;;;;;;;;4333628;33;19953;-80
2023/04/16 00:36:47;;;;;;;;;;;;;;;;;;4333797;33;19943;-79
2023/04/16 00:39:13;;;;;;;;;;;;;;;;;;4333451;33;19973;-79
2023/04/16 00:41:38;;;;;;;;;;;;;;;;;;4332285;33;19954;-79
2023/04/16 00:44:03;;;;;;;;;;;;;;;;;;4343833;33;19939;-80
2023/04/16 00:46:28;;;;;;;;;;;;;;;;;;4343302;33;20328;-80
2023/04/16 00:48:53;;;;;;;;;;;;;;;;;;4343621;33;19949;-81
2023/04/16 00:51:20;;;;;;;;;;;;;;;;;;4332016;33;19970;-80
2023/04/16 00:53:45;;;;;;;;;;;;;;;;;;4330996;33;19935;-80
2023/04/16 00:56:10;;;;;;;;;;;;;;;;;;4333133;33;19977;-78
2023/04/16 00:58:35;;;;;;;;;;;;;;;;;;4331840;33;20256;-78
2023/04/16 01:01:00;;;;;;;;;;;;;;;;;;4331881;33;19966;-78
2023/04/16 01:03:25;;;;;;;;;;;;;;;;;;4333245;33;19943;-78
2023/04/16 01:05:50;;;;;;;;;;;;;;;;;;4333147;33;20347;-79
2023/04/16 01:08:16;;;;;;;;;;;;;;;;;;4333340;33;19949;-79
2023/04/16 01:10:41;;;;;;;;;;;;;;;;;;4332988;33;20012;-79
2023/04/16 01:13:06;;;;;;;;;;;;;;;;;;4330476;33;20324;-78
2023/04/16 01:15:31;;;;;;;;;;;;;;;;;;4333596;33;19947;-80
2023/04/16 01:17:56;;;;;;;;;;;;;;;;;;4330924;33;19967;-79
2023/04/16 01:20:21;;;;;;;;;;;;;;;;;;4332898;33;19971;-79
2023/04/16 01:22:46;;;;;;;;;;;;;;;;;;4332028;33;19949;-79
2023/04/16 01:25:11;;;;;;;;;;;;;;;;;;4330530;33;20311;-79
2023/04/16 01:27:36;;;;;;;;;;;;;;;;;;4331881;33;19982;-79
2023/04/16 01:30:01;;;;;;;;;;;;;;;;;;4331964;33;20037;-79
2023/04/16 01:32:26;;;;;;;;;;;;;;;;;;4332633;33;19939;-79
2023/04/16 01:34:51;;;;;;;;;;;;;;;;;;4332520;33;19966;-79
2023/04/16 01:37:17;;;;;;;;;;;;;;;;;;4333329;33;19974;-79
2023/04/16 01:39:42;;;;;;;;;;;;;;;;;;4331820;33;19966;-79
2023/04/16 01:42:07;;;;;;;;;;;;;;;;;;4330191;33;19959;-79
2023/04/16 01:44:32;;;;;;;;;;;;;;;;;;4330196;33;20345;-79
2023/04/16 01:46:57;;;;;;;;;;;;;;;;;;4330463;33;19939;-78
2023/04/16 01:49:22;;;;;;;;;;;;;;;;;;4330438;33;20214;-79
2023/04/16 01:51:47;;;;;;;;;;;;;;;;;;4331039;33;20030;-79
2023/04/16 01:54:12;;;;;;;;;;;;;;;;;;4332548;33;19954;-79
2023/04/16 01:56:38;;;;;;;;;;;;;;;;;;4331910;33;20320;-79
2023/04/16 01:59:03;;;;;;;;;;;;;;;;;;4333910;33;19934;-79
2023/04/16 02:01:28;;;;;;;;;;;;;;;;;;4336738;33;19943;-79
2023/04/16 02:03:53;;;;;;;;;;;;;;;;;;4334060;33;20313;-80
2023/04/16 02:06:18;;;;;;;;;;;;;;;;;;4331809;33;19973;-79
2023/04/16 02:08:43;;;;;;;;;;;;;;;;;;4332087;33;19939;-79
2023/04/16 02:11:08;;;;;;;;;;;;;;;;;;4332912;33;19935;-80
2023/04/16 02:13:33;;;;;;;;;;;;;;;;;;4332517;33;19985;-80
2023/04/16 02:15:58;;;;;;;;;;;;;;;;;;4330358;33;19955;-80
2023/04/16 02:18:24;;;;;;;;;;;;;;;;;;4333724;33;20250;-79
2023/04/16 02:20:49;;;;;;;;;;;;;;;;;;4338220;33;19924;-79
2023/04/16 02:23:14;;;;;;;;;;;;;;;;;;4342664;33;19939;-79
2023/04/16 02:25:40;;;;;;;;;;;;;;;;;;4340563;33;19973;-79
2023/04/16 02:28:05;;;;;;;;;;;;;;;;;;4339464;33;19958;-79
2023/04/16 02:30:30;;;;;;;;;;;;;;;;;;4335998;33;19935;-79
2023/04/16 02:32:55;;;;;;;;;;;;;;;;;;4336666;33;19983;-79
2023/04/16 02:35:20;;;;;;;;;;;;;;;;;;4338269;33;19950;-79
2023/04/16 02:37:45;;;;;;;;;;;;;;;;;;4335353;33;19951;-80
2023/04/16 02:40:10;;;;;;;;;;;;;;;;;;4333659;33;19935;-79
2023/04/16 02:42:35;;;;;;;;;;;;;;;;;;4333585;33;20325;-79
2023/04/16 02:45:00;;;;;;;;;;;;;;;;;;4333552;33;19939;-81
2023/04/16 02:47:26;;;;;;;;;;;;;;;;;;4333079;33;19943;-81
2023/04/16 02:49:51;;;;;;;;;;;;;;;;;;4335113;33;20383;-82
2023/04/16 02:52:16;;;;;;;;;;;;;;;;;;4344942;33;19945;-81
2023/04/16 02:54:41;;;;;;;;;;;;;;;;;;4333983;33;19974;-82
2023/04/16 02:57:06;;;;;;;;;;;;;;;;;;4334589;33;20282;-82
2023/04/16 02:59:31;;;;;;;;;;;;;;;;;;4345451;33;20477;-81
2023/04/16 03:01:56;;;;;;;;;;;;;;;;;;4334409;33;20290;-81
2023/04/16 03:04:21;;;;;;;;;;;;;;;;;;4345332;33;19942;-81
2023/04/16 03:06:47;;;;;;;;;;;;;;;;;;4334133;33;19965;-81
2023/04/16 03:09:12;;;;;;;;;;;;;;;;;;4334493;33;19974;-80
2023/04/16 03:11:37;;;;;;;;;;;;;;;;;;4345523;33;19951;-80
2023/04/16 03:14:02;;;;;;;;;;;;;;;;;;4344939;33;20359;-81
2023/04/16 03:16:27;;;;;;;;;;;;;;;;;;4333382;33;19985;-78
2023/04/16 03:18:52;;;;;;;;;;;;;;;;;;4344485;33;19954;-81
2023/04/16 03:21:18;;;;;;;;;;;;;;;;;;4333264;33;20309;-81
2023/04/16 03:23:43;;;;;;;;;;;;;;;;;;4334199;33;19953;-80
2023/04/16 03:26:08;;;;;;;;;;;;;;;;;;4333408;33;20268;-81
2023/04/16 03:28:33;;;;;;;;;;;;;;;;;;4333965;33;20285;-80
2023/04/16 03:30:58;;;;;;;;;;;;;;;;;;4344604;33;20256;-80
2023/04/16 03:33:23;;;;;;;;;;;;;;;;;;4333489;33;19935;-80
2023/04/16 03:35:48;;;;;;;;;;;;;;;;;;4344993;33;19990;-81
2023/04/16 03:38:13;;;;;;;;;;;;;;;;;;4334304;33;19949;-81
2023/04/16 03:40:38;;;;;;;;;;;;;;;;;;4345045;32;19986;-81
2023/04/16 03:43:04;;;;;;;;;;;;;;;;;;4347335;33;19954;-79
2023/04/16 03:45:29;;;;;;;;;;;;;;;;;;4339800;33;19984;-80
2023/04/16 03:47:54;;;;;;;;;;;;;;;;;;4337338;33;19943;-80
2023/04/16 03:50:19;;;;;;;;;;;;;;;;;;4343704;33;19939;-78
2023/04/16 03:52:45;;;;;;;;;;;;;;;;;;4332919;33;19931;-77
2023/04/16 03:55:10;;;;;;;;;;;;;;;;;;4346241;33;19946;-77
2023/04/16 03:57:36;;;;;;;;;;;;;;;;;;4338755;33;19939;-74
2023/04/16 04:00:01;;;;;;;;;;;;;;;;;;4334151;33;19975;-76
2023/04/16 04:02:26;;;;;;;;;;;;;;;;;;4334879;33;19946;-77
2023/04/16 04:04:51;;;;;;;;;;;;;;;;;;4351522;33;20001;-78
2023/04/16 04:07:16;;;;;;;;;;;;;;;;;;4337790;33;19939;-78
2023/04/16 04:09:41;;;;;;;;;;;;;;;;;;4335602;33;19967;-77
2023/04/16 04:12:06;;;;;;;;;;;;;;;;;;4338903;33;19945;-78
2023/04/16 04:14:31;;;;;;;;;;;;;;;;;;4345738;33;19939;-80
2023/04/16 04:16:57;;;;;;;;;;;;;;;;;;4334822;33;19950;-78
2023/04/16 04:19:22;;;;;;;;;;;;;;;;;;4334050;33;19985;-78
2023/04/16 04:21:47;;;;;;;;;;;;;;;;;;4332801;33;19940;-78
2023/04/16 04:24:12;;;;;;;;;;;;;;;;;;4344249;32;19977;-78
2023/04/16 04:26:37;;;;;;;;;;;;;;;;;;4332805;33;19935;-78
2023/04/16 04:29:02;;;;;;;;;;;;;;;;;;4344288;33;20390;-78
2023/04/16 04:31:27;;;;;;;;;;;;;;;;;;4344197;33;19951;-79
2023/04/16 04:33:52;;;;;;;;;;;;;;;;;;4333051;33;19935;-79
2023/04/16 04:36:17;;;;;;;;;;;;;;;;;;4332435;33;19939;-78
2023/04/16 04:38:42;;;;;;;;;;;;;;;;;;4332433;33;20309;-80
2023/04/16 04:41:08;;;;;;;;;;;;;;;;;;4332796;33;19949;-80
2023/04/16 04:43:33;;;;;;;;;;;;;;;;;;4332270;33;19991;-79
2023/04/16 04:45:58;;;;;;;;;;;;;;;;;;4343415;33;19958;-80
2023/04/16 04:48:25;;;;;;;;;;;;;;;;;;4343246;33;19951;-79
2023/04/16 04:50:50;;;;;;;;;;;;;;;;;;4343115;33;20310;-79
2023/04/16 04:53:15;;;;;;;;;;;;;;;;;;4331915;33;20264;-78
2023/04/16 04:55:40;;;;;;;;;;;;;;;;;;4333022;33;19995;-78
2023/04/16 04:58:05;;;;;;;;;;;;;;;;;;4332270;33;20317;-78
2023/04/16 05:00:31;;;;;;;;;;;;;;;;;;4344832;33;19947;-78
2023/04/16 05:02:56;;;;;;;;;;;;;;;;;;4333518;33;19957;-79
2023/04/16 05:05:21;;;;;;;;;;;;;;;;;;4344395;33;19936;-79
2023/04/16 05:07:46;;;;;;;;;;;;;;;;;;4332692;33;19959;-79
2023/04/16 05:10:11;;;;;;;;;;;;;;;;;;4343209;33;20351;-79
2023/04/16 05:12:36;;;;;;;;;;;;;;;;;;4334040;33;20010;-79
2023/04/16 05:15:01;;;;;;;;;;;;;;;;;;4343013;33;20504;-79
2023/04/16 05:17:26;;;;;;;;;;;;;;;;;;4342843;33;19963;-79
2023/04/16 05:19:51;;;;;;;;;;;;;;;;;;4332435;33;20398;-78
2023/04/16 05:22:17;;;;;;;;;;;;;;;;;;4333317;33;19935;-80
2023/04/16 05:24:42;;;;;;;;;;;;;;;;;;4344120;33;19989;-79
2023/04/16 05:27:08;;;;;;;;;;;;;;;;;;4333512;33;20005;-78
2023/04/16 05:29:33;;;;;;;;;;;;;;;;;;4342610;33;19939;-79
2023/04/16 05:31:58;;;;;;;;;;;;;;;;;;4331577;33;20042;-79
2023/04/16 05:34:23;;;;;;;;;;;;;;;;;;4342395;33;19939;-79
2023/04/16 05:36:48;;;;;;;;;;;;;;;;;;4331457;33;20317;-79
2023/04/16 05:39:13;;;;;;;;;;;;;;;;;;4331335;33;19949;-79
2023/04/16 05:41:38;;;;;;;;;;;;;;;;;;4332036;33;19950;-79
2023/04/16 05:44:03;;;;;;;;;;;;;;;;;;4332656;33;19939;-80
2023/04/16 05:46:28;;;;;;;;;;;;;;;;;;4335712;33;19955;-79
2023/04/16 05:48:53;;;;;;;;;;;;;;;;;;4335190;33;19950;-80
2023/04/16 05:51:21;;;;;;;;;;;;;;;;;;4343319;33;19971;-79
2023/04/16 05:53:46;;;;;;;;;;;;;;;;;;4331444;33;19977;-80
2023/04/16 05:56:12;;;;;;;;;;;;;;;;;;4342809;33;19986;-80
2023/04/16 05:58:37;;;;;;;;;;;;;;;;;;4331547;33;19973;-80
2023/04/16 06:01:02;;;;;;;;;;;;;;;;;;4342448;33;19989;-81
2023/04/16 06:03:27;;;;;;;;;;;;;;;;;;4342442;33;19939;-81
2023/04/16 06:05:52;;;;;;;;;;;;;;;;;;4342878;33;19970;-81
2023/04/16 06:08:17;;;;;;;;;;;;;;;;;;4342259;33;19928;-81
2023/04/16 06:10:42;;;;;;;;;;;;;;;;;;4351897;33;20004;-81
2023/04/16 06:13:07;;;;;;;;;;;;;;;;;;4343346;33;19970;-82
2023/04/16 06:15:32;;;;;;;;;;;;;;;;;;4331924;33;19939;-82
2023/04/16 06:17:57;;;;;;;;;;;;;;;;;;4342429;33;20005;-82
2023/04/16 06:20:22;;;;;;;;;;;;;;;;;;4332841;33;19958;-82
2023/04/16 06:22:48;;;;;;;;;;;;;;;;;;4331669;33;20351;-83
2023/04/16 06:25:13;;;;;;;;;;;;;;;;;;4337466;33;19953;-82
2023/04/16 06:27:38;;;;;;;;;;;;;;;;;;4351730;33;19935;-82
2023/04/16 06:30:03;;;;;;;;;;;;;;;;;;4341324;33;19970;-82
2023/04/16 06:32:28;;;;;;;;;;;;;;;;;;4343117;33;19950;-82
2023/04/16 06:34:53;;;;;;;;;;;;;;;;;;4332693;33;19947;-82
2023/04/16 06:37:18;;;;;;;;;;;;;;;;;;4333104;33;19943;-82
2023/04/16 06:39:43;;;;;;;;;;;;;;;;;;4331870;33;19934;-83
2023/04/16 06:42:09;;;;;;;;;;;;;;;;;;4331904;33;19994;-82
2023/04/16 06:44:34;;;;;;;;;;;;;;;;;;4347937;33;19982;-82
2023/04/16 06:46:59;;;;;;;;;;;;;;;;;;4339596;33;19939;-83
2023/04/16 06:49:24;;;;;;;;;;;;;;;;;;4343304;33;20080;-82
2023/04/16 06:51:49;;;;;;;;;;;;;;;;;;4332966;33;20276;-82
2023/04/16 06:54:15;;;;;;;;;;;;;;;;;;4330932;33;19939;-82
2023/04/16 06:56:40;;;;;;;;;;;;;;;;;;4331857;33;20234;-82
2023/04/16 06:59:05;;;;;;;;;;;;;;;;;;4332331;33;19970;-83
2023/04/16 07:01:31;;;;;;;;;;;;;;;;;;4331392;33;19943;-84
2023/04/16 07:03:56;;;;;;;;;;;;;;;;;;4332331;33;19943;-83
2023/04/16 07:06:21;;;;;;;;;;;;;;;;;;4333906;33;19950;-82
2023/04/16 07:08:46;;;;;;;;;;;;;;;;;;4333586;33;19935;-83
2023/04/16 07:11:11;;;;;;;;;;;;;;;;;;4333135;33;20333;-83
2023/04/16 07:13:36;;;;;;;;;;;;;;;;;;4331675;33;19999;-85
2023/04/16 07:16:01;;;;;;;;;;;;;;;;;;4333430;33;19982;-83
2023/04/16 07:18:26;;;;;;;;;;;;;;;;;;4332605;33;19969;-82
2023/04/16 07:20:51;;;;;;;;;;;;;;;;;;4337808;33;20013;-80
2023/04/16 07:23:16;;;;;;;;;;;;;;;;;;4338022;33;19940;-82
2023/04/16 07:25:42;;;;;;;;;;;;;;;;;;4335765;33;19966;-83
2023/04/16 07:28:07;;;;;;;;;;;;;;;;;;4334616;33;19965;-84
2023/04/16 07:30:33;;;;;;;;;;;;;;;;;;4336121;33;19998;-82
2023/04/16 07:32:58;;;;;;;;;;;;;;;;;;4335499;33;19944;-85
2023/04/16 07:35:23;;;;;;;;;;;;;;;;;;4336155;33;19943;-85
2023/04/16 07:37:48;;;;;;;;;;;;;;;;;;4338730;33;19953;-86
2023/04/16 07:40:13;;;;;;;;;;;;;;;;;;4335897;33;19943;-85
2023/04/16 07:42:38;;;;;;;;;;;;;;;;;;4336611;33;19947;-86
2023/04/16 07:45:03;;;;;;;;;;;;;;;;;;4339925;33;19953;-85
2023/04/16 07:47:28;;;;;;;;;;;;;;;;;;4346415;33;19935;-86
2023/04/16 07:49:54;;;;;;;;;;;;;;;;;;4351282;32;19925;-85
2023/04/16 07:52:19;;;;;;;;;;;;;;;;;;4360513;33;19931;-85
2023/04/16 07:54:44;;;;;;;;;;;;;;;;;;4359281;33;19927;-87
2023/04/16 07:57:11;;;;;;;;;;;;;;;;;;4351151;33;19939;-87
2023/04/16 07:59:36;;;;;;;;;;;;;;;;;;4348052;33;19939;-87
2023/04/16 08:02:01;;;;;;;;;;;;;;;;;;4347940;33;19950;-87
2023/04/16 08:04:26;;;;;;;;;;;;;;;;;;4347826;33;19935;-87
2023/04/16 08:06:51;;;;;;;;;;;;;;;;;;4348629;33;20027;-87
2023/04/16 08:09:16;;;;;;;;;;;;;;;;;;4349402;33;20329;-89
2023/04/16 08:11:41;;;;;;;;;;;;;;;;;;4354182;33;19947;-88
2023/04/16 08:14:06;;;;;;;;;;;;;;;;;;4351922;33;19954;-87
2023/04/16 08:16:31;;;;;;;;;;;;;;;;;;4351078;33;19967;-88
2023/04/16 08:18:57;;;;;;;;;;;;;;;;;;4357654;33;20355;-85
2023/04/16 08:21:22;;;;;;;;;;;;;;;;;;4358440;33;19943;-85
2023/04/16 08:23:47;;;;;;;;;;;;;;;;;;4348147;33;19954;-87
2023/04/16 08:26:12;;;;;;;;;;;;;;;;;;4359029;33;19954;-86
2023/04/16 08:28:37;;;;;;;;;;;;;;;;;;4359517;32;19938;-85
2023/04/16 08:31:03;;;;;;;;;;;;;;;;;;4360985;32;19963;-85
2023/04/16 08:33:28;;;;;;;;;;;;;;;;;;4359493;32;19936;-86
2023/04/16 08:35:53;;;;;;;;;;;;;;;;;;4355549;33;19943;-86
2023/04/16 08:38:18;;;;;;;;;;;;;;;;;;4341284;33;19949;-86
2023/04/16 08:40:43;;;;;;;;;;;;;;;;;;4349622;33;19970;-86
2023/04/16 08:43:09;;;;;;;;;;;;;;;;;;4347501;33;19943;-86
2023/04/16 08:45:34;;;;;;;;;;;;;;;;;;4347834;33;19939;-86
2023/04/16 08:47:59;;;;;;;;;;;;;;;;;;4346166;33;19939;-87
2023/04/16 08:50:24;;;;;;;;;;;;;;;;;;4345546;33;19935;-86
2023/04/16 08:52:51;;;;;;;;;;;;;;;;;;4345473;33;19974;-86
2023/04/16 08:55:16;;;;;;;;;;;;;;;;;;4346776;33;19935;-88
2023/04/16 08:57:41;;;;;;;;;;;;;;;;;;4349096;33;20001;-85
2023/04/16 09:00:06;;;;;;;;;;;;;;;;;;4350369;33;19955;-85
2023/04/16 09:02:31;;;;;;;;;;;;;;;;;;4353094;33;19935;-84
2023/04/16 09:04:56;;;;;;;;;;;;;;;;;;4341602;33;19981;-85
2023/04/16 09:07:21;;;;;;;;;;;;;;;;;;4349171;33;19974;-86
2023/04/16 09:09:46;;;;;;;;;;;;;;;;;;4345465;33;19943;-86
2023/04/16 09:12:11;;;;;;;;;;;;;;;;;;4345485;33;19943;-85
2023/04/16 09:14:40;;;;;;;;;;;;;;;;;;4344665;33;19940;-85
2023/04/16 09:17:05;;;;;;;;;;;;;;;;;;4345475;33;19967;-84
2023/04/16 09:19:30;;;;;;;;;;;;;;;;;;4345848;32;19947;-86
2023/04/16 09:21:56;;;;;;;;;;;;;;;;;;4350504;33;19943;-84
2023/04/16 09:24:21;;;;;;;;;;;;;;;;;;4352018;33;20030;-84
2023/04/16 09:26:46;;;;;;;;;;;;;;;;;;4336591;33;20257;-86
2023/04/16 09:29:11;;;;;;;;;;;;;;;;;;4334011;33;19953;-87
2023/04/16 09:31:36;;;;;;;;;;;;;;;;;;4346274;33;19940;-85
2023/04/16 09:34:01;;;;;;;;;;;;;;;;;;4353335;33;19974;-85
2023/04/16 09:36:26;;;;;;;;;;;;;;;;;;4350129;33;19935;-86
2023/04/16 09:38:52;;;;;;;;;;;;;;;;;;4333611;33;20013;-85
2023/04/16 09:41:17;;;;;;;;;;;;;;;;;;4344809;33;19993;-87
2023/04/16 09:43:42;;;;;;;;;;;;;;;;;;4333997;33;19990;-86
2023/04/16 09:46:07;;;;;;;;;;;;;;;;;;4346811;33;19973;-85
2023/04/16 09:48:32;;;;;;;;;;;;;;;;;;4350390;33;19970;-86
2023/04/16 09:50:57;;;;;;;;;;;;;;;;;;4347093;33;19979;-86
2023/04/16 09:53:22;;;;;;;;;;;;;;;;;;4348134;33;20009;-84
2023/04/16 09:55:47;;;;;;;;;;;;;;;;;;4346156;33;19974;-87
2023/04/16 09:58:12;;;;;;;;;;;;;;;;;;4346759;33;19990;-86
2023/04/16 10:00:38;;;;;;;;;;;;;;;;;;4350520;33;19949;-86
2023/04/16 10:03:03;;;;;;;;;;;;;;;;;;4356954;33;19947;-86
2023/04/16 10:05:28;;;;;;;;;;;;;;;;;;4358919;32;19931;-86
2023/04/16 10:07:53;;;;;;;;;;;;;;;;;;4359492;32;19923;-84
2023/04/16 10:10:18;;;;;;;;;;;;;;;;;;4344154;33;19949;-85
2023/04/16 10:12:43;;;;;;;;;;;;;;;;;;4356938;33;19927;-84
2023/04/16 10:15:09;;;;;;;;;;;;;;;;;;4348089;33;19946;-83
2023/04/16 10:17:34;;;;;;;;;;;;;;;;;;4374424;32;19946;-84
2023/04/16 10:20:00;;;;;;;;;;;;;;;;;;4374139;32;19993;-87
2023/04/16 10:22:25;;;;;;;;;;;;;;;;;;4374021;32;19931;-84
2023/04/16 10:24:50;;;;;;;;;;;;;;;;;;4371395;32;19935;-86
2023/04/16 10:27:16;;;;;;;;;;;;;;;;;;4375189;32;19919;-83
2023/04/16 10:29:41;;;;;;;;;;;;;;;;;;4374175;32;19946;-84
2023/04/16 10:32:06;;;;;;;;;;;;;;;;;;4374772;32;19977;-84
2023/04/16 10:34:31;;;;;;;;;;;;;;;;;;4374125;32;19926;-87
2023/04/16 10:36:56;;;;;;;;;;;;;;;;;;4373204;32;19935;-87
2023/04/16 10:39:21;;;;;;;;;;;;;;;;;;4372976;32;19973;-87
2023/04/16 10:41:46;;;;;;;;;;;;;;;;;;4371254;32;19938;-86
2023/04/16 10:44:11;;;;;;;;;;;;;;;;;;4372868;32;19920;-86
2023/04/16 10:46:37;;;;;;;;;;;;;;;;;;4373213;32;19954;-86
2023/04/16 10:49:02;;;;;;;;;;;;;;;;;;4370030;32;19963;-86
2023/04/16 10:51:28;;;;;;;;;;;;;;;;;;4350981;33;19930;-85
2023/04/16 10:53:53;;;;;;;;;;;;;;;;;;4348953;33;19939;-85
2023/04/16 10:56:18;;;;;;;;;;;;;;;;;;4349519;33;19970;-85
2023/04/16 10:58:43;;;;;;;;;;;;;;;;;;4349552;33;19965;-85
2023/04/16 11:01:08;;;;;;;;;;;;;;;;;;4351003;33;19935;-86
2023/04/16 11:03:33;;;;;;;;;;;;;;;;;;4351166;33;19957;-86
2023/04/16 11:05:58;;;;;;;;;;;;;;;;;;4350655;33;19935;-86
2023/04/16 11:08:24;;;;;;;;;;;;;;;;;;4349187;33;19973;-86
2023/04/16 11:10:49;;;;;;;;;;;;;;;;;;4350713;33;19939;-87
2023/04/16 11:13:15;;;;;;;;;;;;;;;;;;4351915;33;19947;-87
2023/04/16 11:15:40;;;;;;;;;;;;;;;;;;4353040;33;19962;-87
2023/04/16 11:18:05;;;;;;;;;;;;;;;;;;4354488;32;19939;-86
2023/04/16 11:20:30;;;;;;;;;;;;;;;;;;4351843;33;20328;-87
2023/04/16 11:22:56;;;;;;;;;;;;;;;;;;4351576;33;19938;-85
2023/04/16 11:25:21;;;;;;;;;;;;;;;;;;4351339;33;20094;-86
2023/04/16 11:27:46;;;;;;;;;;;;;;;;;;4349263;33;19946;-86
2023/04/16 11:30:12;;;;;;;;;;;;;;;;;;4348208;33;20013;-85
2023/04/16 11:32:37;;;;;;;;;;;;;;;;;;4348828;33;20319;-86
2023/04/16 11:35:03;;;;;;;;;;;;;;;;;;4351215;33;19981;-86
2023/04/16 11:37:28;;;;;;;;;;;;;;;;;;4350912;33;19943;-86
2023/04/16 11:39:53;;;;;;;;;;;;;;;;;;4351646;33;19971;-85
2023/04/16 11:42:20;;;;;;;;;;;;;;;;;;4350515;33;20295;-86
2023/04/16 11:44:45;;;;;;;;;;;;;;;;;;4349693;32;19934;-86
2023/04/16 11:47:12;;;;;;;;;;;;;;;;;;4351192;33;20218;-86
2023/04/16 11:49:37;;;;;;;;;;;;;;;;;;4350989;33;19943;-86
2023/04/16 11:52:03;;;;;;;;;;;;;;;;;;4361590;32;19942;-87
2023/04/16 11:54:33;;;;;;;;;;;;;;;;;;4361267;32;19939;-87
2023/04/16 11:56:58;;;;;;;;;;;;;;;;;;4361920;32;20358;-85
2023/04/16 11:59:23;;;;;;;;;;;;;;;;;;4361381;32;20279;-86
2023/04/16 12:01:48;;;;;;;;;;;;;;;;;;4362428;32;20328;-83
2023/04/16 12:04:14;;;;;;;;;;;;;;;;;;4361598;32;19954;-83
2023/04/16 12:06:40;;;;;;;;;;;;;;;;;;4352446;33;19955;-84
2023/04/16 12:09:05;;;;;;;;;;;;;;;;;;4360403;32;20395;-85
2023/04/16 12:11:30;;;;;;;;;;;;;;;;;;4360977;32;19939;-84
2023/04/16 12:13:55;;;;;;;;;;;;;;;;;;4363986;32;19956;-84
2023/04/16 12:16:20;;;;;;;;;;;;;;;;;;4362519;32;19992;-85
2023/04/16 12:18:46;;;;;;;;;;;;;;;;;;4375837;32;20007;-83
2023/04/16 12:21:11;;;;;;;;;;;;;;;;;;4361241;32;19935;-83
2023/04/16 12:23:36;;;;;;;;;;;;;;;;;;4370775;32;19949;-84
2023/04/16 12:26:01;;;;;;;;;;;;;;;;;;4370900;32;20312;-84
2023/04/16 12:28:26;;;;;;;;;;;;;;;;;;4360807;32;19935;-85
2023/04/16 12:30:51;;;;;;;;;;;;;;;;;;4360260;32;19943;-82
2023/04/16 12:33:17;;;;;;;;;;;;;;;;;;4369664;32;19934;-83
2023/04/16 12:35:42;;;;;;;;;;;;;;;;;;4356790;32;19970;-83
2023/04/16 12:38:07;;;;;;;;;;;;;;;;;;4349390;32;19981;-82
2023/04/16 12:40:33;;;;;;;;;;;;;;;;;;4359510;32;19974;-83
2023/04/16 12:42:58;;;;;;;;;;;;;;;;;;4359805;32;19938;-84
2023/04/16 12:45:23;;;;;;;;;;;;;;;;;;4359344;32;19939;-82
2023/04/16 12:47:49;;;;;;;;;;;;;;;;;;4363895;32;19939;-82
2023/04/16 12:50:14;;;;;;;;;;;;;;;;;;4362743;32;20387;-83
2023/04/16 12:52:39;;;;;;;;;;;;;;;;;;4347771;33;19951;-84
2023/04/16 12:55:04;;;;;;;;;;;;;;;;;;4359090;32;20299;-82
2023/04/16 12:57:29;;;;;;;;;;;;;;;;;;4347908;33;19955;-82
2023/04/16 12:59:55;;;;;;;;;;;;;;;;;;4359344;32;20350;-82
2023/04/16 13:02:21;;;;;;;;;;;;;;;;;;4358926;32;19945;-83
2023/04/16 13:04:46;;;;;;;;;;;;;;;;;;4347417;32;19938;-83
2023/04/16 13:07:11;;;;;;;;;;;;;;;;;;4347784;32;19938;-82
2023/04/16 13:09:36;;;;;;;;;;;;;;;;;;4347169;32;19977;-82
2023/04/16 13:12:01;;;;;;;;;;;;;;;;;;4347393;33;19984;-84
2023/04/16 13:14:27;;;;;;;;;;;;;;;;;;4347708;32;19951;-83
2023/04/16 13:16:52;;;;;;;;;;;;;;;;;;4358743;32;19982;-83
2023/04/16 13:19:18;;;;;;;;;;;;;;;;;;4361021;32;19942;-82
2023/04/16 13:21:43;;;;;;;;;;;;;;;;;;4358539;32;19946;-82
2023/04/16 13:24:08;;;;;;;;;;;;;;;;;;4347667;33;20264;-84
2023/04/16 13:26:33;;;;;;;;;;;;;;;;;;4347208;32;19986;-83
2023/04/16 13:28:58;;;;;;;;;;;;;;;;;;4357984;32;19938;-83
2023/04/16 13:31:23;;;;;;;;;;;;;;;;;;4348097;32;19942;-83
2023/04/16 13:33:48;;;;;;;;;;;;;;;;;;4347056;33;20267;-83
2023/04/16 13:36:13;;;;;;;;;;;;;;;;;;4347120;32;19981;-81
2023/04/16 13:38:38;;;;;;;;;;;;;;;;;;4349753;32;19942;-83
2023/04/16 13:41:04;;;;;;;;;;;;;;;;;;4359372;32;19965;-83
2023/04/16 13:43:30;;;;;;;;;;;;;;;;;;4346677;32;20295;-82
2023/04/16 13:45:55;;;;;;;;;;;;;;;;;;4347655;32;19938;-82
2023/04/16 13:48:20;;;;;;;;;;;;;;;;;;4347015;32;19939;-82
2023/04/16 13:50:45;;;;;;;;;;;;;;;;;;4346503;33;19943;-82
2023/04/16 13:53:10;;;;;;;;;;;;;;;;;;4347448;33;20291;-83
2023/04/16 13:55:35;;;;;;;;;;;;;;;;;;4347312;33;19934;-82
2023/04/16 13:58:00;;;;;;;;;;;;;;;;;;4345949;33;20371;-83
2023/04/16 14:00:26;;;;;;;;;;;;;;;;;;4351002;33;19971;-82
2023/04/16 14:02:51;;;;;;;;;;;;;;;;;;4349332;33;19953;-83
2023/04/16 14:05:16;;;;;;;;;;;;;;;;;;4348082;33;19943;-82
2023/04/16 14:07:41;;;;;;;;;;;;;;;;;;4348217;33;19988;-81
2023/04/16 14:10:06;;;;;;;;;;;;;;;;;;4350021;33;19969;-82
2023/04/16 14:12:31;;;;;;;;;;;;;;;;;;4347729;33;20293;-82
2023/04/16 14:14:57;;;;;;;;;;;;;;;;;;4347954;33;19982;-81
2023/04/16 14:17:22;;;;;;;;;;;;;;;;;;4346355;33;19970;-83
2023/04/16 14:19:47;;;;;;;;;;;;;;;;;;4348820;33;19947;-83
2023/04/16 14:22:16;;;;;;;;;;;;;;;;;;4347370;33;19966;-82
2023/04/16 14:24:41;;;;;;;;;;;;;;;;;;4362174;32;19919;-82
2023/04/16 14:27:06;;;;;;;;;;;;;;;;;;4352314;33;20018;-82
2023/04/16 14:29:31;;;;;;;;;;;;;;;;;;4348951;33;20259;-82
2023/04/16 14:31:57;;;;;;;;;;;;;;;;;;4346070;33;20265;-82
2023/04/16 14:34:22;;;;;;;;;;;;;;;;;;4345232;33;19938;-81
2023/04/16 14:36:48;;;;;;;;;;;;;;;;;;4355970;33;19945;-81
2023/04/16 14:39:13;;;;;;;;;;;;;;;;;;4353879;33;19935;-81
2023/04/16 14:41:39;;;;;;;;;;;;;;;;;;4350987;33;19935;-81
2023/04/16 14:44:05;;;;;;;;;;;;;;;;;;4349087;33;19938;-82
2023/04/16 14:46:32;;;;;;;;;;;;;;;;;;4348352;32;19964;-82
2023/04/16 14:48:57;;;;;;;;;;;;;;;;;;4350590;33;20320;-81
2023/04/16 14:51:22;;;;;;;;;;;;;;;;;;4359943;32;20359;-81
2023/04/16 14:53:47;;;;;;;;;;;;;;;;;;4360304;32;19938;-82
2023/04/16 14:56:12;;;;;;;;;;;;;;;;;;4361846;32;20351;-82
2023/04/16 14:58:38;;;;;;;;;;;;;;;;;;4351606;32;19958;-83
2023/04/16 15:01:03;;;;;;;;;;;;;;;;;;4367026;32;19966;-83
2023/04/16 15:03:28;;;;;;;;;;;;;;;;;;4361133;33;19934;-83
2023/04/16 15:05:56;;;;;;;;;;;;;;;;;;4364075;33;19949;-83
2023/04/16 15:08:21;;;;;;;;;;;;;;;;;;4367516;32;19969;-83
2023/04/16 15:10:46;;;;;;;;;;;;;;;;;;4360690;32;19943;-83
2023/04/16 15:13:11;;;;;;;;;;;;;;;;;;4360319;32;20379;-83
2023/04/16 15:15:36;;;;;;;;;;;;;;;;;;4349750;32;19945;-83
2023/04/16 15:18:01;;;;;;;;;;;;;;;;;;4350646;32;19939;-83
2023/04/16 15:20:27;;;;;;;;;;;;;;;;;;4360400;32;19938;-84
2023/04/16 15:22:52;;;;;;;;;;;;;;;;;;4350452;32;19977;-83
2023/04/16 15:25:17;;;;;;;;;;;;;;;;;;4349194;33;19939;-84
2023/04/16 15:27:42;;;;;;;;;;;;;;;;;;4363455;32;19985;-83
2023/04/16 15:30:07;;;;;;;;;;;;;;;;;;4360654;32;19953;-84
2023/04/16 15:32:32;;;;;;;;;;;;;;;;;;4349454;32;19935;-84
2023/04/16 15:34:58;;;;;;;;;;;;;;;;;;4364297;32;19939;-84
2023/04/16 15:37:23;;;;;;;;;;;;;;;;;;4369427;32;19931;-84
2023/04/16 15:39:48;;;;;;;;;;;;;;;;;;4367873;32;19939;-83
2023/04/16 15:42:14;;;;;;;;;;;;;;;;;;4368965;32;19946;-81
2023/04/16 15:44:39;;;;;;;;;;;;;;;;;;4368042;32;19935;-83
2023/04/16 15:47:06;;;;;;;;;;;;;;;;;;4362164;32;19943;-83
2023/04/16 15:49:31;;;;;;;;;;;;;;;;;;4366619;32;19997;-84
2023/04/16 15:51:56;;;;;;;;;;;;;;;;;;4364465;32;19943;-83
2023/04/16 15:54:22;;;;;;;;;;;;;;;;;;4350657;32;19990;-84
2023/04/16 15:56:47;;;;;;;;;;;;;;;;;;4362378;32;19971;-84
2023/04/16 15:59:12;;;;;;;;;;;;;;;;;;4361462;32;19954;-84
2023/04/16 16:01:37;;;;;;;;;;;;;;;;;;4361866;32;19946;-84
2023/04/16 16:04:02;;;;;;;;;;;;;;;;;;4368086;32;19962;-84
2023/04/16 16:06:27;;;;;;;;;;;;;;;;;;4369207;32;19969;-84
2023/04/16 16:08:53;;;;;;;;;;;;;;;;;;4358116;32;20045;-83
2023/04/16 16:11:18;;;;;;;;;;;;;;;;;;4366712;32;19935;-83
2023/04/16 16:13:43;;;;;;;;;;;;;;;;;;4367096;32;19959;-84
2023/04/16 16:16:08;;;;;;;;;;;;;;;;;;4362336;32;19953;-83
2023/04/16 16:18:35;;;;;;;;;;;;;;;;;;4354935;32;19978;-86
2023/04/16 16:21:00;;;;;;;;;;;;;;;;;;4367135;32;19935;-84
2023/04/16 16:23:25;;;;;;;;;;;;;;;;;;4364784;32;19978;-84
2023/04/16 16:25:51;;;;;;;;;;;;;;;;;;4353093;32;20264;-85
2023/04/16 16:28:16;;;;;;;;;;;;;;;;;;4354263;32;20290;-86
2023/04/16 16:30:41;;;;;;;;;;;;;;;;;;4371630;32;19927;-83